sensor_id;sensor_type;location;lat;lon;timestamp;P1;durP1;ratioP1;P2;durP2;ratioP2
6185;SDS011;3126;52.738;8.316;2022-10-16T00:02:58;2.50;;;1.70;;
6185;SDS011;3126;52.738;8.316;2022-10-16T00:07:58;3.75;;;1.67;;
6185;SDS011;3126;52.738;8.316;2022-10-16T00:12:59;3.35;;;1.95;;
6185;SDS011;3126;52.738;8.316;2022-10-16T00:17:59;1.83;;;1.70;;
6185;SDS011;3126;52.738;8.316;2022-10-16T00:23:00;4.03;;;2.13;;
6185;SDS011;3126;52.738;8.316;2022-10-16T00:28:01;4.70;;;2.20;;
6185;SDS011;3126;52.738;8.316;2022-10-16T00:33:01;4.28;;;1.98;;
6185;SDS011;3126;52.738;8.316;2022-10-16T00:38:02;7.82;;;2.55;;
6185;SDS011;3126;52.738;8.316;2022-10-16T00:43:02;2.78;;;1.92;;
6185;SDS011;3126;52.738;8.316;2022-10-16T00:48:32;4.32;;;2.42;;
6185;SDS011;3126;52.738;8.316;2022-10-16T00:53:33;3.58;;;2.22;;
6185;SDS011;3126;52.738;8.316;2022-10-16T00:58:34;4.53;;;2.25;;
6185;SDS011;3126;52.738;8.316;2022-10-16T01:03:36;3.05;;;1.95;;
6185;SDS011;3126;52.738;8.316;2022-10-16T01:09:40;4.13;;;1.98;;
6185;SDS011;3126;52.738;8.316;2022-10-16T01:24:49;6.72;;;2.47;;
6185;SDS011;3126;52.738;8.316;2022-10-16T01:29:58;3.90;;;1.85;;
6185;SDS011;3126;52.738;8.316;2022-10-16T01:35:08;4.10;;;2.05;;
6185;SDS011;3126;52.738;8.316;2022-10-16T01:40:24;4.20;;;2.10;;
6185;SDS011;3126;52.738;8.316;2022-10-16T01:45:26;3.78;;;2.53;;
6185;SDS011;3126;52.738;8.316;2022-10-16T01:50:29;4.05;;;2.58;;
6185;SDS011;3126;52.738;8.316;2022-10-16T01:55:35;2.85;;;2.45;;
6185;SDS011;3126;52.738;8.316;2022-10-16T02:00:40;2.85;;;2.10;;
6185;SDS011;3126;52.738;8.316;2022-10-16T02:05:46;6.70;;;2.15;;
6185;SDS011;3126;52.738;8.316;2022-10-16T02:10:50;4.80;;;2.33;;
6185;SDS011;3126;52.738;8.316;2022-10-16T02:15:50;3.80;;;2.78;;
6185;SDS011;3126;52.738;8.316;2022-10-16T02:26:27;3.90;;;2.95;;
6185;SDS011;3126;52.738;8.316;2022-10-16T02:31:38;6.50;;;3.10;;
6185;SDS011;3126;52.738;8.316;2022-10-16T02:36:42;4.53;;;3.47;;
6185;SDS011;3126;52.738;8.316;2022-10-16T02:41:45;6.45;;;3.65;;
6185;SDS011;3126;52.738;8.316;2022-10-16T02:46:47;6.43;;;3.90;;
6185;SDS011;3126;52.738;8.316;2022-10-16T02:51:47;7.18;;;4.18;;
6185;SDS011;3126;52.738;8.316;2022-10-16T02:56:48;8.05;;;5.78;;
6185;SDS011;3126;52.738;8.316;2022-10-16T03:01:48;9.15;;;5.93;;
6185;SDS011;3126;52.738;8.316;2022-10-16T03:06:49;10.90;;;6.20;;
6185;SDS011;3126;52.738;8.316;2022-10-16T03:11:49;12.00;;;6.57;;
6185;SDS011;3126;52.738;8.316;2022-10-16T03:16:50;12.88;;;7.93;;
6185;SDS011;3126;52.738;8.316;2022-10-16T03:21:51;15.73;;;6.88;;
6185;SDS011;3126;52.738;8.316;2022-10-16T03:26:51;12.90;;;6.97;;
6185;SDS011;3126;52.738;8.316;2022-10-16T03:31:52;12.98;;;8.48;;
6185;SDS011;3126;52.738;8.316;2022-10-16T03:36:53;12.38;;;7.75;;
6185;SDS011;3126;52.738;8.316;2022-10-16T03:41:53;16.58;;;8.70;;
6185;SDS011;3126;52.738;8.316;2022-10-16T03:46:54;16.83;;;8.45;;
6185;SDS011;3126;52.738;8.316;2022-10-16T03:51:54;11.73;;;8.20;;
6185;SDS011;3126;52.738;8.316;2022-10-16T03:56:55;11.35;;;7.55;;
6185;SDS011;3126;52.738;8.316;2022-10-16T04:01:55;14.50;;;8.45;;
6185;SDS011;3126;52.738;8.316;2022-10-16T04:06:56;12.82;;;7.93;;
6185;SDS011;3126;52.738;8.316;2022-10-16T04:11:56;11.55;;;7.60;;
6185;SDS011;3126;52.738;8.316;2022-10-16T04:16:57;11.27;;;7.88;;
6185;SDS011;3126;52.738;8.316;2022-10-16T04:21:57;12.13;;;8.73;;
6185;SDS011;3126;52.738;8.316;2022-10-16T04:26:58;12.50;;;8.23;;
6185;SDS011;3126;52.738;8.316;2022-10-16T04:31:59;12.32;;;9.73;;
6185;SDS011;3126;52.738;8.316;2022-10-16T04:36:59;14.15;;;8.50;;
6185;SDS011;3126;52.738;8.316;2022-10-16T04:42:00;14.63;;;9.10;;
6185;SDS011;3126;52.738;8.316;2022-10-16T04:47:00;13.93;;;8.85;;
6185;SDS011;3126;52.738;8.316;2022-10-16T04:52:01;13.23;;;8.75;;
6185;SDS011;3126;52.738;8.316;2022-10-16T04:57:01;14.13;;;8.65;;
6185;SDS011;3126;52.738;8.316;2022-10-16T05:02:02;13.02;;;8.80;;
6185;SDS011;3126;52.738;8.316;2022-10-16T05:07:03;14.68;;;9.10;;
6185;SDS011;3126;52.738;8.316;2022-10-16T05:12:04;15.55;;;9.35;;
6185;SDS011;3126;52.738;8.316;2022-10-16T05:17:05;14.07;;;8.13;;
6185;SDS011;3126;52.738;8.316;2022-10-16T05:22:05;13.15;;;8.13;;
6185;SDS011;3126;52.738;8.316;2022-10-16T05:27:06;12.70;;;8.85;;
6185;SDS011;3126;52.738;8.316;2022-10-16T05:32:06;12.88;;;8.10;;
6185;SDS011;3126;52.738;8.316;2022-10-16T05:37:08;12.70;;;8.40;;
6185;SDS011;3126;52.738;8.316;2022-10-16T05:42:09;12.90;;;8.40;;
6185;SDS011;3126;52.738;8.316;2022-10-16T05:47:10;12.10;;;8.55;;
6185;SDS011;3126;52.738;8.316;2022-10-16T05:52:12;11.75;;;7.63;;
6185;SDS011;3126;52.738;8.316;2022-10-16T05:57:13;11.43;;;7.20;;
6185;SDS011;3126;52.738;8.316;2022-10-16T06:02:14;11.88;;;7.65;;
6185;SDS011;3126;52.738;8.316;2022-10-16T06:07:15;11.95;;;8.35;;
6185;SDS011;3126;52.738;8.316;2022-10-16T06:12:15;11.38;;;7.38;;
6185;SDS011;3126;52.738;8.316;2022-10-16T06:17:16;12.57;;;7.65;;
6185;SDS011;3126;52.738;8.316;2022-10-16T06:22:17;10.18;;;6.70;;
6185;SDS011;3126;52.738;8.316;2022-10-16T06:27:17;9.00;;;6.05;;
6185;SDS011;3126;52.738;8.316;2022-10-16T06:32:18;8.82;;;5.70;;
6185;SDS011;3126;52.738;8.316;2022-10-16T06:37:18;8.93;;;5.35;;
6185;SDS011;3126;52.738;8.316;2022-10-16T06:42:19;8.45;;;5.75;;
6185;SDS011;3126;52.738;8.316;2022-10-16T06:47:19;8.35;;;5.38;;
6185;SDS011;3126;52.738;8.316;2022-10-16T06:52:20;7.05;;;5.90;;
6185;SDS011;3126;52.738;8.316;2022-10-16T06:57:21;9.82;;;5.38;;
6185;SDS011;3126;52.738;8.316;2022-10-16T07:02:22;5.32;;;4.18;;
6185;SDS011;3126;52.738;8.316;2022-10-16T07:07:22;6.60;;;4.30;;
6185;SDS011;3126;52.738;8.316;2022-10-16T07:12:24;5.35;;;3.70;;
6185;SDS011;3126;52.738;8.316;2022-10-16T07:17:25;5.70;;;3.97;;
6185;SDS011;3126;52.738;8.316;2022-10-16T07:22:27;3.83;;;3.47;;
6185;SDS011;3126;52.738;8.316;2022-10-16T07:27:28;7.35;;;3.63;;
6185;SDS011;3126;52.738;8.316;2022-10-16T07:32:29;7.32;;;4.20;;
6185;SDS011;3126;52.738;8.316;2022-10-16T07:37:30;6.13;;;3.60;;
6185;SDS011;3126;52.738;8.316;2022-10-16T07:42:30;4.80;;;3.15;;
6185;SDS011;3126;52.738;8.316;2022-10-16T07:47:31;4.95;;;3.63;;
6185;SDS011;3126;52.738;8.316;2022-10-16T07:52:31;4.03;;;2.92;;
6185;SDS011;3126;52.738;8.316;2022-10-16T07:57:32;4.47;;;3.08;;
6185;SDS011;3126;52.738;8.316;2022-10-16T08:02:32;6.22;;;3.42;;
6185;SDS011;3126;52.738;8.316;2022-10-16T08:07:33;5.10;;;3.00;;
6185;SDS011;3126;52.738;8.316;2022-10-16T08:12:34;3.67;;;2.92;;
6185;SDS011;3126;52.738;8.316;2022-10-16T08:17:34;3.55;;;2.13;;
6185;SDS011;3126;52.738;8.316;2022-10-16T08:22:35;2.72;;;2.40;;
6185;SDS011;3126;52.738;8.316;2022-10-16T08:27:35;6.07;;;3.30;;
6185;SDS011;3126;52.738;8.316;2022-10-16T08:32:36;5.50;;;2.33;;
6185;SDS011;3126;52.738;8.316;2022-10-16T08:37:37;8.48;;;3.35;;
6185;SDS011;3126;52.738;8.316;2022-10-16T08:52:48;3.55;;;1.98;;
6185;SDS011;3126;52.738;8.316;2022-10-16T08:57:48;9.02;;;2.15;;
6185;SDS011;3126;52.738;8.316;2022-10-16T09:02:52;2.97;;;1.85;;
6185;SDS011;3126;52.738;8.316;2022-10-16T09:18:54;2.10;;;1.90;;
6185;SDS011;3126;52.738;8.316;2022-10-16T09:24:33;4.20;;;1.90;;
6185;SDS011;3126;52.738;8.316;2022-10-16T09:29:34;3.60;;;1.60;;
6185;SDS011;3126;52.738;8.316;2022-10-16T09:34:35;3.88;;;1.60;;
6185;SDS011;3126;52.738;8.316;2022-10-16T09:39:46;1.95;;;1.52;;
6185;SDS011;3126;52.738;8.316;2022-10-16T09:44:49;4.65;;;1.80;;
6185;SDS011;3126;52.738;8.316;2022-10-16T09:55:14;4.70;;;1.52;;
6185;SDS011;3126;52.738;8.316;2022-10-16T10:00:16;3.05;;;1.40;;
6185;SDS011;3126;52.738;8.316;2022-10-16T10:05:22;4.38;;;1.33;;
6185;SDS011;3126;52.738;8.316;2022-10-16T10:10:30;4.60;;;1.58;;
6185;SDS011;3126;52.738;8.316;2022-10-16T10:15:33;2.22;;;1.15;;
6185;SDS011;3126;52.738;8.316;2022-10-16T10:20:36;3.60;;;0.82;;
6185;SDS011;3126;52.738;8.316;2022-10-16T10:52:47;2.22;;;0.90;;
6185;SDS011;3126;52.738;8.316;2022-10-16T11:25:02;3.53;;;1.27;;
6185;SDS011;3126;52.738;8.316;2022-10-16T11:30:06;2.97;;;1.05;;
6185;SDS011;3126;52.738;8.316;2022-10-16T11:36:02;4.32;;;1.10;;
6185;SDS011;3126;52.738;8.316;2022-10-16T11:40:43;3.42;;;1.13;;
6185;SDS011;3126;52.738;8.316;2022-10-16T11:45:52;2.22;;;0.80;;
6185;SDS011;3126;52.738;8.316;2022-10-16T11:56:20;5.85;;;1.20;;
6185;SDS011;3126;52.738;8.316;2022-10-16T12:01:24;4.10;;;1.20;;
6185;SDS011;3126;52.738;8.316;2022-10-16T12:06:49;5.20;;;0.82;;
6185;SDS011;3126;52.738;8.316;2022-10-16T12:11:57;4.97;;;0.95;;
6185;SDS011;3126;52.738;8.316;2022-10-16T12:16:59;6.43;;;1.20;;
6185;SDS011;3126;52.738;8.316;2022-10-16T12:22:05;2.67;;;1.08;;
6185;SDS011;3126;52.738;8.316;2022-10-16T12:27:30;2.33;;;1.15;;
6185;SDS011;3126;52.738;8.316;2022-10-16T12:32:32;3.83;;;1.25;;
6185;SDS011;3126;52.738;8.316;2022-10-16T12:37:35;3.95;;;0.98;;
6185;SDS011;3126;52.738;8.316;2022-10-16T12:42:37;4.35;;;1.38;;
6185;SDS011;3126;52.738;8.316;2022-10-16T12:47:47;4.15;;;1.00;;
6185;SDS011;3126;52.738;8.316;2022-10-16T12:52:50;4.03;;;1.10;;
6185;SDS011;3126;52.738;8.316;2022-10-16T12:57:58;2.92;;;1.20;;
6185;SDS011;3126;52.738;8.316;2022-10-16T13:30:24;5.05;;;1.15;;
6185;SDS011;3126;52.738;8.316;2022-10-16T13:35:29;3.75;;;1.10;;
6185;SDS011;3126;52.738;8.316;2022-10-16T13:40:32;4.00;;;1.30;;
6185;SDS011;3126;52.738;8.316;2022-10-16T13:45:34;3.97;;;1.40;;
6185;SDS011;3126;52.738;8.316;2022-10-16T13:50:35;4.53;;;1.30;;
6185;SDS011;3126;52.738;8.316;2022-10-16T13:55:35;6.13;;;1.27;;
6185;SDS011;3126;52.738;8.316;2022-10-16T14:00:36;5.38;;;1.50;;
6185;SDS011;3126;52.738;8.316;2022-10-16T14:05:41;3.78;;;1.30;;
6185;SDS011;3126;52.738;8.316;2022-10-16T14:10:46;5.13;;;1.25;;
6185;SDS011;3126;52.738;8.316;2022-10-16T14:15:49;3.45;;;1.45;;
6185;SDS011;3126;52.738;8.316;2022-10-16T14:20:51;7.20;;;1.30;;
6185;SDS011;3126;52.738;8.316;2022-10-16T14:25:52;3.75;;;0.90;;
6185;SDS011;3126;52.738;8.316;2022-10-16T14:30:54;4.07;;;1.25;;
6185;SDS011;3126;52.738;8.316;2022-10-16T14:36:06;5.88;;;1.30;;
6185;SDS011;3126;52.738;8.316;2022-10-16T14:41:13;6.32;;;1.83;;
6185;SDS011;3126;52.738;8.316;2022-10-16T14:46:17;4.05;;;1.40;;
6185;SDS011;3126;52.738;8.316;2022-10-16T14:51:19;3.72;;;1.65;;
6185;SDS011;3126;52.738;8.316;2022-10-16T14:56:24;4.88;;;1.63;;
6185;SDS011;3126;52.738;8.316;2022-10-16T15:01:28;6.60;;;1.70;;
6185;SDS011;3126;52.738;8.316;2022-10-16T15:06:29;6.18;;;1.40;;
6185;SDS011;3126;52.738;8.316;2022-10-16T15:11:30;3.88;;;1.80;;
6185;SDS011;3126;52.738;8.316;2022-10-16T15:16:32;3.40;;;1.17;;
6185;SDS011;3126;52.738;8.316;2022-10-16T15:21:33;3.47;;;1.52;;
6185;SDS011;3126;52.738;8.316;2022-10-16T15:26:34;7.97;;;1.77;;
6185;SDS011;3126;52.738;8.316;2022-10-16T15:31:34;4.10;;;1.98;;
6185;SDS011;3126;52.738;8.316;2022-10-16T15:36:36;3.00;;;1.33;;
6185;SDS011;3126;52.738;8.316;2022-10-16T15:41:38;6.65;;;1.60;;
6185;SDS011;3126;52.738;8.316;2022-10-16T15:46:38;4.10;;;1.40;;
6185;SDS011;3126;52.738;8.316;2022-10-16T15:51:39;4.60;;;1.85;;
6185;SDS011;3126;52.738;8.316;2022-10-16T15:56:41;2.53;;;1.50;;
6185;SDS011;3126;52.738;8.316;2022-10-16T16:01:42;6.25;;;2.60;;
6185;SDS011;3126;52.738;8.316;2022-10-16T16:06:43;4.95;;;2.20;;
6185;SDS011;3126;52.738;8.316;2022-10-16T16:11:44;7.05;;;2.05;;
6185;SDS011;3126;52.738;8.316;2022-10-16T16:16:45;7.45;;;2.30;;
6185;SDS011;3126;52.738;8.316;2022-10-16T16:21:45;6.13;;;2.50;;
6185;SDS011;3126;52.738;8.316;2022-10-16T16:26:46;8.30;;;3.00;;
6185;SDS011;3126;52.738;8.316;2022-10-16T16:31:47;5.93;;;2.42;;
6185;SDS011;3126;52.738;8.316;2022-10-16T16:36:48;6.82;;;2.40;;
6185;SDS011;3126;52.738;8.316;2022-10-16T16:41:48;5.93;;;2.90;;
6185;SDS011;3126;52.738;8.316;2022-10-16T16:46:49;10.45;;;4.38;;
6185;SDS011;3126;52.738;8.316;2022-10-16T16:51:50;12.25;;;4.43;;
6185;SDS011;3126;52.738;8.316;2022-10-16T16:56:52;14.68;;;5.50;;
6185;SDS011;3126;52.738;8.316;2022-10-16T17:01:53;10.13;;;5.32;;
6185;SDS011;3126;52.738;8.316;2022-10-16T17:06:54;14.00;;;8.63;;
6185;SDS011;3126;52.738;8.316;2022-10-16T17:11:54;12.75;;;6.50;;
6185;SDS011;3126;52.738;8.316;2022-10-16T17:16:55;10.35;;;5.45;;
6185;SDS011;3126;52.738;8.316;2022-10-16T17:21:55;6.93;;;3.58;;
6185;SDS011;3126;52.738;8.316;2022-10-16T17:26:56;4.07;;;2.38;;
6185;SDS011;3126;52.738;8.316;2022-10-16T17:31:57;6.97;;;3.35;;
6185;SDS011;3126;52.738;8.316;2022-10-16T17:36:58;9.88;;;4.47;;
6185;SDS011;3126;52.738;8.316;2022-10-16T17:41:59;10.18;;;4.72;;
6185;SDS011;3126;52.738;8.316;2022-10-16T17:47:00;7.45;;;4.43;;
6185;SDS011;3126;52.738;8.316;2022-10-16T17:52:00;8.13;;;4.25;;
6185;SDS011;3126;52.738;8.316;2022-10-16T17:57:02;4.00;;;2.50;;
6185;SDS011;3126;52.738;8.316;2022-10-16T18:02:02;7.90;;;3.85;;
6185;SDS011;3126;52.738;8.316;2022-10-16T18:07:03;7.35;;;2.97;;
6185;SDS011;3126;52.738;8.316;2022-10-16T18:12:03;5.20;;;2.80;;
6185;SDS011;3126;52.738;8.316;2022-10-16T18:17:04;6.85;;;2.75;;
6185;SDS011;3126;52.738;8.316;2022-10-16T18:22:06;5.97;;;3.85;;
6185;SDS011;3126;52.738;8.316;2022-10-16T18:27:07;7.32;;;3.10;;
6185;SDS011;3126;52.738;8.316;2022-10-16T18:32:08;8.63;;;3.38;;
6185;SDS011;3126;52.738;8.316;2022-10-16T18:37:08;6.68;;;2.92;;
6185;SDS011;3126;52.738;8.316;2022-10-16T18:42:09;6.55;;;3.53;;
6185;SDS011;3126;52.738;8.316;2022-10-16T18:47:10;7.07;;;3.75;;
6185;SDS011;3126;52.738;8.316;2022-10-16T18:52:10;6.63;;;3.88;;
6185;SDS011;3126;52.738;8.316;2022-10-16T18:57:11;12.38;;;4.68;;
6185;SDS011;3126;52.738;8.316;2022-10-16T19:02:12;10.10;;;4.35;;
6185;SDS011;3126;52.738;8.316;2022-10-16T19:07:12;14.18;;;7.95;;
6185;SDS011;3126;52.738;8.316;2022-10-16T19:12:14;11.05;;;6.13;;
6185;SDS011;3126;52.738;8.316;2022-10-16T19:17:15;6.35;;;4.00;;
6185;SDS011;3126;52.738;8.316;2022-10-16T19:22:15;10.95;;;2.92;;
6185;SDS011;3126;52.738;8.316;2022-10-16T19:27:26;6.15;;;3.20;;
6185;SDS011;3126;52.738;8.316;2022-10-16T19:32:27;6.50;;;3.30;;
6185;SDS011;3126;52.738;8.316;2022-10-16T19:37:29;4.55;;;2.42;;
6185;SDS011;3126;52.738;8.316;2022-10-16T19:42:29;5.40;;;2.83;;
6185;SDS011;3126;52.738;8.316;2022-10-16T19:47:30;6.88;;;2.67;;
6185;SDS011;3126;52.738;8.316;2022-10-16T19:52:31;6.75;;;2.60;;
6185;SDS011;3126;52.738;8.316;2022-10-16T19:57:33;7.13;;;3.00;;
6185;SDS011;3126;52.738;8.316;2022-10-16T20:02:34;5.50;;;2.53;;
6185;SDS011;3126;52.738;8.316;2022-10-16T20:07:35;5.35;;;2.72;;
6185;SDS011;3126;52.738;8.316;2022-10-16T20:12:36;5.30;;;3.28;;
6185;SDS011;3126;52.738;8.316;2022-10-16T20:17:37;7.32;;;3.88;;
6185;SDS011;3126;52.738;8.316;2022-10-16T20:22:37;5.85;;;3.35;;
6185;SDS011;3126;52.738;8.316;2022-10-16T20:27:38;6.80;;;3.25;;
6185;SDS011;3126;52.738;8.316;2022-10-16T20:32:38;9.13;;;3.72;;
6185;SDS011;3126;52.738;8.316;2022-10-16T20:37:40;7.13;;;3.65;;
6185;SDS011;3126;52.738;8.316;2022-10-16T20:42:43;9.48;;;3.67;;
6185;SDS011;3126;52.738;8.316;2022-10-16T20:47:44;5.88;;;3.63;;
6185;SDS011;3126;52.738;8.316;2022-10-16T20:52:44;8.15;;;3.25;;
6185;SDS011;3126;52.738;8.316;2022-10-16T20:57:45;6.45;;;3.22;;
6185;SDS011;3126;52.738;8.316;2022-10-16T21:02:48;6.15;;;3.60;;
6185;SDS011;3126;52.738;8.316;2022-10-16T21:07:50;5.32;;;3.58;;
6185;SDS011;3126;52.738;8.316;2022-10-16T21:12:53;4.60;;;3.05;;
6185;SDS011;3126;52.738;8.316;2022-10-16T21:17:54;4.13;;;3.63;;
6185;SDS011;3126;52.738;8.316;2022-10-16T21:22:54;7.72;;;3.90;;
6185;SDS011;3126;52.738;8.316;2022-10-16T21:27:55;7.68;;;3.42;;
6185;SDS011;3126;52.738;8.316;2022-10-16T21:32:55;5.60;;;3.53;;
6185;SDS011;3126;52.738;8.316;2022-10-16T21:37:56;8.13;;;3.83;;
6185;SDS011;3126;52.738;8.316;2022-10-16T21:42:57;9.43;;;4.20;;
6185;SDS011;3126;52.738;8.316;2022-10-16T21:47:57;8.00;;;4.35;;
6185;SDS011;3126;52.738;8.316;2022-10-16T21:52:58;8.20;;;3.97;;
6185;SDS011;3126;52.738;8.316;2022-10-16T21:57:59;5.82;;;3.65;;
6185;SDS011;3126;52.738;8.316;2022-10-16T22:02:59;6.80;;;3.60;;
6185;SDS011;3126;52.738;8.316;2022-10-16T22:08:00;7.13;;;3.40;;
6185;SDS011;3126;52.738;8.316;2022-10-16T22:13:00;8.30;;;3.60;;
6185;SDS011;3126;52.738;8.316;2022-10-16T22:18:01;7.45;;;4.43;;
6185;SDS011;3126;52.738;8.316;2022-10-16T22:23:01;5.68;;;3.28;;
6185;SDS011;3126;52.738;8.316;2022-10-16T22:28:02;9.48;;;3.75;;
6185;SDS011;3126;52.738;8.316;2022-10-16T22:33:03;6.88;;;4.25;;
6185;SDS011;3126;52.738;8.316;2022-10-16T22:38:04;6.32;;;3.53;;
6185;SDS011;3126;52.738;8.316;2022-10-16T22:43:05;7.93;;;3.05;;
6185;SDS011;3126;52.738;8.316;2022-10-16T22:48:06;4.57;;;3.55;;
6185;SDS011;3126;52.738;8.316;2022-10-16T22:53:06;6.18;;;3.70;;
6185;SDS011;3126;52.738;8.316;2022-10-16T22:58:07;5.25;;;4.07;;
6185;SDS011;3126;52.738;8.316;2022-10-16T23:03:07;6.88;;;3.92;;
6185;SDS011;3126;52.738;8.316;2022-10-16T23:08:08;7.72;;;3.83;;
6185;SDS011;3126;52.738;8.316;2022-10-16T23:13:10;6.28;;;4.05;;
6185;SDS011;3126;52.738;8.316;2022-10-16T23:18:11;5.05;;;4.50;;
6185;SDS011;3126;52.738;8.316;2022-10-16T23:23:11;5.13;;;4.70;;
6185;SDS011;3126;52.738;8.316;2022-10-16T23:28:13;6.50;;;4.97;;
6185;SDS011;3126;52.738;8.316;2022-10-16T23:33:13;5.97;;;4.90;;
6185;SDS011;3126;52.738;8.316;2022-10-16T23:38:14;7.40;;;5.20;;
6185;SDS011;3126;52.738;8.316;2022-10-16T23:43:14;6.38;;;5.05;;
6185;SDS011;3126;52.738;8.316;2022-10-16T23:48:15;5.95;;;4.75;;
6185;SDS011;3126;52.738;8.316;2022-10-16T23:53:16;5.90;;;4.78;;
6185;SDS011;3126;52.738;8.316;2022-10-16T23:58:16;5.32;;;4.28;;
